Time;durP1;ratioP1;P1;durP2;ratioP2;P2;SDS_P1;SDS_P2;PMS_P1;PMS_P2;Temp;Humidity;BMP_temperature;BMP_pressure;BME280_temperature;BME280_humidity;BME280_pressure;Samples;Min_cycle;Max_cycle;Signal;HPM_P1;HPM_P2
2023/09/10 00:00:27;;;;;;;48.87;43.90;;;24.60;79.80;;;27.36;50.75;101631.53;4938396;29;20320;-66
2023/09/10 00:02:54;;;;;;;40.93;37.13;;;24.60;79.70;;;27.37;50.81;101622.31;4939258;29;20276;-66
2023/09/10 00:05:21;;;;;;;35.63;32.23;;;24.60;79.70;;;27.39;50.96;101625.59;4938812;29;20202;-66
2023/09/10 00:07:48;;;;;;;34.77;31.40;;;24.60;79.70;;;27.40;50.85;101627.22;4938930;29;20198;-66
2023/09/10 00:10:17;;;;;;;38.13;34.33;;;24.60;79.70;;;27.41;50.75;101634.25;4938185;29;20224;-66
2023/09/10 00:12:44;;;;;;;38.47;34.87;;;24.60;79.50;;;27.43;50.72;101626.72;4938774;29;20276;-66
2023/09/10 00:15:11;;;;;;;43.33;38.87;;;24.70;79.40;;;27.45;50.95;101621.84;4938778;29;20213;-66
2023/09/10 00:17:38;;;;;;;38.70;34.90;;;24.70;79.40;;;27.43;50.81;101622.09;4936945;29;20193;-66
2023/09/10 00:20:09;;;;;;;41.50;37.47;;;24.70;79.20;;;27.39;50.51;101620.19;4924945;29;20221;-66
2023/09/10 00:22:37;;;;;;;42.00;37.83;;;24.70;79.30;;;27.37;50.26;101622.31;4938430;29;20194;-68
2023/09/10 00:25:05;;;;;;;41.27;37.17;;;24.60;79.40;;;27.33;50.73;101621.22;4938379;29;20190;-66
2023/09/10 00:27:34;;;;;;;45.50;41.03;;;24.60;79.70;;;27.31;50.88;101626.09;4919571;29;20281;-66
2023/09/10 00:30:01;;;;;;;58.67;52.67;;;24.60;79.90;;;27.31;50.90;101617.97;4918039;29;20221;-67
2023/09/10 00:32:28;;;;;;;52.47;47.17;;;24.60;79.50;;;27.31;50.90;101623.38;4921552;29;20711;-68
2023/09/10 00:34:55;;;;;;;57.93;51.90;;;24.50;80.30;;;27.32;50.82;101625.81;4937923;29;20216;-67
2023/09/10 00:37:22;;;;;;;62.67;56.30;;;24.50;79.50;;;27.33;50.59;101626.63;4938133;29;20257;-66
2023/09/10 00:39:49;;;;;;;58.33;52.50;;;24.50;79.30;;;27.31;50.62;101626.09;4923533;29;20309;-67
2023/09/10 00:42:17;;;;;;;57.57;51.57;;;24.50;79.40;;;27.31;50.44;101634.19;4919045;29;20260;-66
2023/09/10 00:44:46;;;;;;;60.13;54.00;;;24.50;79.50;;;27.26;50.52;101631.47;4925559;29;20198;-66
2023/09/10 00:47:13;;;;;;;60.67;54.17;;;24.50;79.40;;;27.20;50.73;101632.50;4937628;29;20194;-67
2023/09/10 00:49:41;;;;;;;57.17;51.37;;;24.40;79.30;;;27.15;50.75;101635.16;4936885;29;20217;-67
2023/09/10 00:52:08;;;;;;;55.10;49.57;;;24.40;79.50;;;27.11;51.04;101639.47;4937568;29;20655;-68
2023/09/10 00:54:37;;;;;;;56.70;50.97;;;24.30;79.60;;;27.07;50.71;101632.97;4937694;29;20196;-67
2023/09/10 00:57:05;;;;;;;56.97;51.33;;;24.30;79.70;;;27.04;50.98;101633.50;4937801;29;20221;-67
2023/09/10 00:59:32;;;;;;;56.70;50.97;;;24.20;79.80;;;26.99;51.38;101630.75;4936615;29;20336;-67
2023/09/10 01:02:02;;;;;;;56.57;50.63;;;24.20;80.20;;;26.94;51.41;101628.03;4937831;29;20201;-66
2023/09/10 01:04:29;;;;;;;61.50;55.03;;;24.20;80.60;;;26.89;51.27;101628.03;4937736;29;20667;-69
2023/09/10 01:06:56;;;;;;;57.77;51.57;;;24.10;80.60;;;26.83;51.39;101632.56;4937827;29;20225;-67
2023/09/10 01:09:23;;;;;;;61.37;54.90;;;24.10;80.70;;;26.78;51.90;101627.94;4937178;29;20228;-66
2023/09/10 01:12:04;;;;;;;56.87;51.17;;;24.00;80.80;;;26.71;51.82;101627.31;4937266;29;20285;-67
2023/09/10 01:14:37;;;;;;;59.27;52.97;;;24.00;81.10;;;26.68;51.96;101635.94;4937610;29;20193;-67
2023/09/10 01:17:15;;;;;;;58.83;52.73;;;24.00;81.40;;;26.60;52.08;101630.22;4937522;29;20197;-67
2023/09/10 01:20:59;;;;;;;59.60;53.40;;;23.90;81.60;;;26.47;52.37;101630.63;4919673;29;20222;-66
2023/09/10 01:23:47;;;;;;;57.53;51.57;;;23.90;82.20;;;26.49;52.77;101626.59;4859847;29;20181;-69
2023/09/10 01:26:15;;;;;;;53.17;47.73;;;23.80;82.50;;;26.53;53.31;101627.72;4864298;29;20620;-67
2023/09/10 01:28:42;;;;;;;53.20;47.70;;;23.80;82.80;;;26.57;53.13;101628.84;4906379;29;20306;-67
2023/09/10 01:31:09;;;;;;;52.27;47.07;;;23.80;82.90;;;26.60;53.08;101632.91;4918397;29;20195;-66
2023/09/10 01:33:45;;;;;;;57.03;51.30;;;23.80;83.10;;;26.56;52.88;101621.81;4929688;29;20250;-66
2023/09/10 01:36:19;;;;;;;55.70;49.70;;;23.80;83.10;;;26.52;52.82;101628.81;4936975;29;20186;-67
2023/09/10 01:39:01;;;;;;;55.00;49.23;;;23.70;83.30;;;26.50;53.17;101628.25;4936087;29;20300;-67
2023/09/10 01:41:32;;;;;;;52.77;47.33;;;23.70;83.40;;;26.47;53.84;101627.94;4937432;29;20654;-67
2023/09/10 01:44:02;;;;;;;52.50;46.90;;;23.70;83.60;;;26.48;53.18;101630.38;4937139;29;20198;-66
2023/09/10 01:46:32;;;;;;;54.33;48.73;;;23.70;83.70;;;26.47;53.63;101628.75;4937167;29;20301;-66
2023/09/10 01:49:01;;;;;;;55.80;50.20;;;23.70;83.80;;;26.46;53.40;101627.13;4936663;29;20570;-66
2023/09/10 01:51:28;;;;;;;52.00;46.43;;;23.70;84.00;;;26.44;54.00;101626.56;4936981;29;20216;-66
2023/09/10 01:53:55;;;;;;;53.23;47.67;;;23.60;83.90;;;26.45;53.69;101630.09;4936847;29;20226;-66
2023/09/10 01:56:22;;;;;;;49.87;44.77;;;23.70;84.10;;;26.46;53.59;101632.53;4936899;29;20198;-66
2023/09/10 01:58:51;;;;;;;55.07;49.53;;;23.60;84.20;;;26.48;53.78;101627.66;4935598;29;20218;-66
2023/09/10 02:01:18;;;;;;;55.67;50.07;;;23.70;84.20;;;26.49;53.79;101632.00;4936908;29;20674;-66
2023/09/10 02:03:45;;;;;;;50.07;44.90;;;23.70;84.40;;;26.45;54.03;101628.19;4937179;29;20193;-66
2023/09/10 02:06:12;;;;;;;52.70;47.53;;;23.70;84.20;;;26.43;53.69;101627.66;4937146;29;20194;-66
2023/09/10 02:08:39;;;;;;;52.53;47.03;;;23.70;84.40;;;26.44;53.77;101626.56;4936735;29;20814;-66
2023/09/10 02:11:07;;;;;;;51.17;45.83;;;23.70;84.60;;;26.46;54.09;101632.53;4936569;29;20629;-66
2023/09/10 02:13:34;;;;;;;52.10;46.87;;;23.70;84.60;;;26.50;53.83;101628.25;4936535;29;20202;-66
2023/09/10 02:16:03;;;;;;;50.60;45.50;;;23.70;84.50;;;26.53;53.64;101627.72;4936282;29;20562;-66
2023/09/10 02:18:30;;;;;;;52.03;46.73;;;23.70;84.40;;;26.58;54.20;101633.16;4927951;29;20230;-67
2023/09/10 02:20:57;;;;;;;54.93;49.33;;;23.80;84.30;;;26.61;53.72;101635.34;4917185;29;20726;-66
2023/09/10 02:23:25;;;;;;;51.07;45.87;;;23.80;84.30;;;26.63;53.59;101632.38;4917963;29;20194;-67
2023/09/10 02:25:52;;;;;;;55.53;49.93;;;23.80;84.20;;;26.63;53.54;101629.69;4923475;29;20196;-66
2023/09/10 02:28:23;;;;;;;58.80;52.90;;;23.90;84.20;;;26.61;53.94;101639.94;4936269;29;20553;-66
2023/09/10 02:30:50;;;;;;;57.13;51.27;;;23.80;84.10;;;26.59;53.63;101642.09;4936671;29;20197;-67
2023/09/10 02:33:19;;;;;;;61.60;55.57;;;23.80;84.20;;;26.54;53.68;101640.16;4936624;29;20204;-66
2023/09/10 02:35:46;;;;;;;56.03;50.23;;;23.80;84.30;;;26.50;53.57;101649.84;4936651;29;20194;-67
2023/09/10 02:38:13;;;;;;;62.07;55.77;;;23.70;84.40;;;26.46;54.03;101648.72;4934874;29;20241;-66
2023/09/10 02:40:40;;;;;;;59.70;53.67;;;23.70;84.60;;;26.40;54.25;101655.16;4922504;29;20213;-67
2023/09/10 02:43:08;;;;;;;57.30;51.53;;;23.60;84.60;;;26.34;53.82;101661.56;4936749;29;20560;-66
2023/09/10 02:45:35;;;;;;;54.27;48.57;;;23.60;84.70;;;26.31;54.58;101659.41;4936478;29;20284;-66
2023/09/10 02:48:02;;;;;;;61.83;55.37;;;23.50;84.90;;;26.27;54.15;101666.38;4936408;29;20204;-66
2023/09/10 02:50:30;;;;;;;60.43;53.97;;;23.50;84.90;;;26.23;54.35;101664.44;4936643;29;20304;-67
2023/09/10 02:52:57;;;;;;;65.30;58.57;;;23.40;85.10;;;26.18;54.48;101665.22;4936208;29;20651;-66
2023/09/10 02:55:25;;;;;;;62.53;56.00;;;23.40;86.10;;;26.15;55.04;101657.59;4929060;29;20205;-66
2023/09/10 02:57:52;;;;;;;55.17;49.50;;;23.40;85.30;;;26.10;54.68;101665.66;4917094;29;20209;-67
2023/09/10 03:00:25;;;;;;;58.57;52.47;;;23.30;85.70;;;26.08;55.28;101663.19;4930022;29;20586;-66
2023/09/10 03:02:53;;;;;;;65.50;58.60;;;23.30;86.00;;;26.09;54.73;101653.22;4936034;29;20671;-66
2023/09/10 03:05:20;;;;;;;60.20;54.30;;;23.30;86.00;;;26.09;55.33;101664.84;4936173;29;20265;-66
2023/09/10 03:07:53;;;;;;;61.83;55.27;;;23.30;86.10;;;26.09;55.27;101656.72;4936367;29;20264;-66
2023/09/10 03:10:20;;;;;;;61.57;54.90;;;23.30;85.90;;;26.11;54.79;101654.63;4919295;29;20217;-66
2023/09/10 03:12:47;;;;;;;64.33;57.70;;;23.30;86.00;;;26.12;55.21;101660.84;4920900;29;20589;-66
2023/09/10 03:15:15;;;;;;;67.53;60.63;;;23.30;85.90;;;26.13;55.29;101659.75;4921232;29;20601;-66
2023/09/10 03:17:42;;;;;;;60.73;54.50;;;23.30;85.80;;;26.11;55.01;101664.59;4922951;29;20231;-67
2023/09/10 03:20:10;;;;;;;62.97;56.40;;;23.30;85.90;;;26.09;54.93;101659.44;4940145;29;20213;-66
2023/09/10 03:22:37;;;;;;;68.83;61.50;;;23.30;86.00;;;26.08;55.29;101656.97;4951178;29;20538;-67
2023/09/10 03:25:07;;;;;;;63.77;57.17;;;23.30;85.90;;;26.06;54.56;101653.72;4924699;29;20284;-66
2023/09/10 03:27:34;;;;;;;60.93;54.70;;;23.30;85.80;;;26.05;55.19;101657.50;4919546;29;20199;-66
2023/09/10 03:30:01;;;;;;;66.57;59.53;;;23.30;86.00;;;26.05;54.99;101652.09;4920665;29;20233;-66
2023/09/10 03:32:28;;;;;;;59.83;52.53;;;23.30;85.80;;;26.00;54.57;101652.88;4923044;29;20285;-68
2023/09/10 03:34:55;;;;;;;64.13;57.40;;;23.30;85.80;;;25.99;54.75;101658.50;4939933;29;20190;-66
2023/09/10 03:37:23;;;;;;;60.40;54.03;;;23.20;85.50;;;25.92;55.14;101647.09;4939012;29;20273;-67
2023/09/10 03:39:50;;;;;;;64.20;57.37;;;23.20;85.60;;;25.87;54.95;101649.72;4939583;29;20217;-66
2023/09/10 03:42:18;;;;;;;61.00;54.63;;;23.20;85.40;;;25.81;55.43;101640.78;4939542;29;20281;-66
2023/09/10 03:44:45;;;;;;;60.53;54.23;;;23.10;85.80;;;25.78;54.91;101648.56;4933997;29;20209;-66
2023/09/10 03:47:12;;;;;;;59.47;53.27;;;23.10;85.90;;;25.74;55.36;101656.34;4939676;29;20280;-65
2023/09/10 03:49:39;;;;;;;57.77;51.57;;;23.00;85.60;;;25.69;55.43;101648.19;4939426;29;20236;-67
2023/09/10 03:52:17;;;;;;;57.27;51.27;;;23.00;86.00;;;25.65;55.65;101647.06;4934030;29;20713;-66
2023/09/10 03:54:44;;;;;;;57.67;51.63;;;22.90;86.00;;;25.61;55.18;101653.19;4937646;29;20204;-66
2023/09/10 03:57:11;;;;;;;56.87;50.97;;;22.90;85.30;;;25.51;54.68;101651.19;4920412;29;20191;-66
2023/09/10 03:59:40;;;;;;;57.40;51.33;;;22.80;85.00;;;25.40;54.50;101649.41;4927196;29;20231;-66
2023/09/10 04:02:08;;;;;;;57.43;51.33;;;22.80;85.20;;;25.27;54.87;101650.59;4939292;29;20274;-66
2023/09/10 04:04:35;;;;;;;58.60;52.57;;;22.60;85.70;;;25.18;55.59;101652.09;4939160;29;20248;-66
2023/09/10 04:07:03;;;;;;;63.67;56.67;;;22.50;86.10;;;25.12;55.37;101650.41;4939017;29;20201;-66
2023/09/10 04:09:30;;;;;;;70.37;56.70;;;22.40;86.30;;;25.02;55.64;101652.94;4939338;29;20666;-66
2023/09/10 04:11:57;;;;;;;63.33;55.87;;;22.30;87.10;;;24.98;56.07;101651.81;4939530;29;20217;-66
2023/09/10 04:14:26;;;;;;;62.13;55.23;;;22.20;87.70;;;24.97;56.41;101655.56;4939188;29;20198;-66
2023/09/10 04:16:54;;;;;;;58.67;51.53;;;22.20;88.10;;;24.95;56.90;101652.28;4939200;29;20194;-67
2023/09/10 04:19:22;;;;;;;56.50;50.33;;;22.10;88.30;;;24.94;56.72;101647.97;4937526;29;20248;-65
2023/09/10 04:21:49;;;;;;;56.97;49.27;;;22.10;88.50;;;24.94;57.01;101650.66;4938010;29;20603;-66
2023/09/10 04:24:16;;;;;;;60.97;52.77;;;22.10;88.80;;;24.96;56.92;101645.81;4938903;29;20273;-66
2023/09/10 04:26:44;;;;;;;63.33;54.37;;;22.10;88.80;;;24.99;56.35;101653.44;4925942;29;20277;-66
2023/09/10 04:29:10;;;;;;;61.53;51.03;;;22.10;88.40;;;24.95;56.72;101655.00;4919415;29;20222;-66
2023/09/10 04:31:41;;;;;;;66.00;56.93;;;22.10;88.40;;;24.93;56.37;101654.44;4920116;29;20205;-66
2023/09/10 04:34:09;;;;;;;70.57;57.17;;;22.00;88.50;;;24.90;56.70;101652.22;4939031;29;20253;-66
2023/09/10 04:36:36;;;;;;;62.93;53.17;;;22.00;88.80;;;24.87;57.44;101656.22;4938577;29;20204;-66
2023/09/10 04:39:09;;;;;;;79.17;59.37;;;22.00;89.30;;;24.89;56.79;101664.03;4930279;29;20246;-66
2023/09/10 04:41:37;;;;;;;80.60;62.93;;;22.00;89.20;;;24.87;57.12;101671.56;4919447;29;20178;-66
2023/09/10 04:44:05;;;;;;;76.33;58.70;;;21.90;89.30;;;24.84;57.08;101677.47;4921054;29;20199;-66
2023/09/10 04:46:32;;;;;;;68.63;55.87;;;21.90;89.50;;;24.82;57.84;101671.47;4938338;29;20205;-66
2023/09/10 04:48:59;;;;;;;79.83;62.20;;;21.90;90.00;;;24.80;57.72;101670.91;4919174;29;20223;-66
2023/09/10 04:51:28;;;;;;;86.00;65.67;;;21.90;90.00;;;24.76;57.81;101673.28;4919354;29;20652;-66
2023/09/10 04:53:55;;;;;;;85.30;62.40;;;21.90;90.20;;;24.77;58.13;101679.50;4919508;29;20210;-66
2023/09/10 04:56:22;;;;;;;77.67;58.70;;;21.80;90.20;;;24.75;57.92;101679.69;4919716;29;20205;-67
2023/09/10 04:58:50;;;;;;;72.30;56.70;;;21.80;90.40;;;24.79;58.04;101680.88;4919885;29;20301;-66
2023/09/10 05:01:17;;;;;;;72.63;57.17;;;21.80;90.50;;;24.84;58.13;101680.16;4937806;29;20300;-66
2023/09/10 05:03:44;;;;;;;72.90;55.40;;;21.90;90.50;;;24.90;58.41;101679.16;4938055;29;20198;-66
2023/09/10 05:06:13;;;;;;;76.43;56.30;;;21.90;90.40;;;24.95;58.27;101679.25;4938269;29;20277;-65
2023/09/10 05:08:41;;;;;;;69.10;55.07;;;22.00;90.40;;;25.00;58.04;101687.41;4919466;29;20218;-66
2023/09/10 05:11:08;;;;;;;65.37;52.23;;;22.10;90.30;;;25.04;57.97;101693.94;4919453;29;20229;-65
2023/09/10 05:13:36;;;;;;;78.30;59.63;;;22.10;90.20;;;25.11;56.92;101693.75;4919755;29;20202;-66
2023/09/10 05:16:03;;;;;;;76.33;60.17;;;22.20;89.80;;;25.11;56.77;101697.25;4938151;29;20198;-66
2023/09/10 05:18:30;;;;;;;63.97;53.40;;;22.20;89.50;;;25.07;56.77;101693.44;4937508;29;20201;-66
2023/09/10 05:20:57;;;;;;;69.87;57.23;;;22.20;89.60;;;25.08;56.98;101700.44;4938281;29;20217;-66
2023/09/10 05:23:28;;;;;;;68.33;53.83;;;22.20;89.50;;;25.11;57.31;101699.97;4937663;29;20194;-66
2023/09/10 05:26:02;;;;;;;73.27;56.00;;;22.20;89.70;;;25.13;56.97;101697.81;4933763;29;20217;-66
2023/09/10 05:28:29;;;;;;;68.20;55.03;;;22.20;89.30;;;25.14;57.17;101707.56;4936924;29;20276;-68
2023/09/10 05:30:56;;;;;;;70.47;56.53;;;22.20;89.10;;;25.14;56.35;101704.03;4937810;29;20190;-66
2023/09/10 05:33:23;;;;;;;64.43;50.93;;;22.20;89.00;;;25.10;56.49;101703.72;4927937;29;20285;-66
2023/09/10 05:35:55;;;;;;;60.57;51.40;;;22.20;88.80;;;25.08;56.55;101703.13;4918610;29;20282;-69
2023/09/10 05:38:22;;;;;;;71.90;57.60;;;22.20;89.30;;;25.10;56.98;101698.34;4920592;29;20675;-66
2023/09/10 05:40:49;;;;;;;70.47;54.63;;;22.20;89.20;;;25.09;56.85;101702.09;4937728;29;20308;-65
2023/09/10 05:43:18;;;;;;;65.60;52.53;;;22.20;89.30;;;25.12;57.13;101701.59;4937158;29;20198;-66
2023/09/10 05:45:46;;;;;;;67.43;52.60;;;22.20;89.50;;;25.18;56.97;101711.38;4937715;29;20289;-66
2023/09/10 05:48:13;;;;;;;72.87;58.50;;;22.20;89.10;;;25.21;56.13;101704.69;4937006;29;20733;-66
2023/09/10 05:50:41;;;;;;;60.83;48.63;;;22.30;88.80;;;25.17;56.38;101708.94;4936386;29;20260;-66
2023/09/10 05:53:08;;;;;;;63.77;51.13;;;22.20;88.20;;;25.11;56.02;101702.66;4937373;29;20236;-67
2023/09/10 05:55:40;;;;;;;63.07;50.70;;;22.20;88.80;;;25.11;56.66;101708.03;4931117;29;20306;-66
2023/09/10 05:58:07;;;;;;;60.40;48.17;;;22.20;88.60;;;25.10;56.58;101709.13;4937259;29;20190;-68
2023/09/10 06:00:36;;;;;;;65.17;51.00;;;22.20;88.20;;;25.07;55.98;101709.59;4936233;29;20230;-66
2023/09/10 06:03:06;;;;;;;61.83;50.97;;;22.20;88.40;;;25.05;56.59;101706.34;4937033;29;20220;-66
2023/09/10 06:05:34;;;;;;;68.87;49.83;;;22.10;88.60;;;25.03;56.19;101719.22;4951734;29;20198;-67
2023/09/10 06:08:01;;;;;;;60.37;48.90;;;22.10;88.20;;;25.00;56.13;101719.75;4937282;29;20229;-66
2023/09/10 06:10:28;;;;;;;57.33;47.77;;;22.10;89.00;;;24.97;56.27;101717.53;4936554;29;20209;-66
2023/09/10 06:12:55;;;;;;;57.30;48.07;;;22.00;88.70;;;24.91;55.86;101718.53;4937286;29;20637;-68
2023/09/10 06:15:23;;;;;;;59.43;45.50;;;22.00;88.60;;;24.87;56.84;101715.50;4936739;29;20294;-66
2023/09/10 06:17:51;;;;;;;60.10;49.77;;;21.90;89.30;;;24.86;56.67;101724.63;4934097;29;20206;-66
2023/09/10 06:20:19;;;;;;;57.83;47.07;;;21.90;89.40;;;24.89;56.53;101726.00;4917336;29;20226;-66
2023/09/10 06:22:46;;;;;;;61.43;43.63;;;22.00;89.50;;;24.94;56.38;101730.69;4917890;29;20199;-65
2023/09/10 06:25:13;;;;;;;47.90;41.57;;;22.00;88.90;;;24.91;56.43;101739.25;4927971;29;20194;-66
2023/09/10 06:27:40;;;;;;;50.97;39.53;;;22.00;88.50;;;24.86;56.66;101743.47;4936774;29;20738;-66
2023/09/10 06:30:08;;;;;;;43.80;38.60;;;21.90;88.40;;;24.82;56.09;101738.81;4936119;29;20301;-66
2023/09/10 06:32:35;;;;;;;42.00;36.37;;;21.90;88.20;;;24.78;55.70;101745.78;4933490;29;20524;-66
2023/09/10 06:35:04;;;;;;;44.90;35.47;;;21.90;88.20;;;24.74;55.80;101753.50;4917552;29;20273;-66
2023/09/10 06:37:31;;;;;;;40.63;36.23;;;21.80;88.30;;;24.70;56.09;101746.13;4919784;29;20254;-66
2023/09/10 06:39:58;;;;;;;35.50;31.73;;;21.80;88.10;;;24.65;56.12;101744.16;4936318;29;20605;-66
2023/09/10 06:42:26;;;;;;;39.70;35.43;;;21.70;87.90;;;24.59;56.51;101744.31;4936412;29;20190;-66
2023/09/10 06:44:53;;;;;;;43.43;38.43;;;21.70;88.20;;;24.56;56.34;101753.69;4934896;29;20245;-66
2023/09/10 06:47:20;;;;;;;42.43;37.17;;;21.60;87.90;;;24.57;55.78;101757.22;4936616;29;20197;-66
2023/09/10 06:49:48;;;;;;;36.33;32.47;;;21.60;88.10;;;24.56;56.25;101756.41;4935961;29;20666;-66
2023/09/10 06:52:16;;;;;;;38.97;34.73;;;21.60;88.40;;;24.54;55.89;101761.22;4935793;29;20248;-66
2023/09/10 06:54:43;;;;;;;38.47;32.17;;;21.50;88.60;;;24.56;56.54;101760.94;4936372;29;20208;-66
2023/09/10 06:57:10;;;;;;;32.57;29.17;;;21.60;88.80;;;24.57;55.78;101763.44;4936268;29;20245;-66
2023/09/10 06:59:37;;;;;;;35.23;30.97;;;21.60;88.40;;;24.58;56.05;101764.25;4935882;29;20229;-66
2023/09/10 07:02:04;;;;;;;33.90;30.17;;;21.60;88.30;;;24.61;56.07;101761.88;4937066;29;20233;-66
2023/09/10 07:04:31;;;;;;;38.50;33.30;;;21.60;88.30;;;24.61;55.54;101769.13;4936421;29;20192;-66
2023/09/10 07:06:59;;;;;;;36.80;31.90;;;21.60;87.70;;;24.56;55.51;101775.25;4932713;29;20622;-66
2023/09/10 07:09:27;;;;;;;30.13;26.77;;;21.60;87.50;;;24.52;55.73;101770.59;4916909;29;20582;-66
2023/09/10 07:11:54;;;;;;;25.37;22.73;;;21.60;87.80;;;24.53;55.60;101769.53;4917238;29;20195;-66
2023/09/10 07:14:22;;;;;;;26.83;24.03;;;21.50;88.60;;;24.53;55.69;101773.03;4932008;29;20225;-66
2023/09/10 07:16:49;;;;;;;27.33;24.47;;;21.50;88.30;;;24.54;55.56;101768.47;4936195;29;20547;-66
2023/09/10 07:19:16;;;;;;;27.80;24.77;;;21.50;88.10;;;24.60;55.85;101778.28;4923441;29;20258;-66
2023/09/10 07:21:43;;;;;;;35.43;31.30;;;21.50;88.30;;;24.63;55.29;101777.78;4936382;29;20565;-66
2023/09/10 07:24:11;;;;;;;32.33;28.93;;;21.60;88.00;;;24.66;55.24;101783.50;4936184;29;20194;-66
2023/09/10 07:26:40;;;;;;;36.83;32.30;;;21.60;88.20;;;24.66;55.57;101782.69;4931737;29;20552;-66
2023/09/10 07:29:08;;;;;;;30.53;27.33;;;21.60;87.80;;;24.65;55.55;101776.47;4935931;29;20210;-66
2023/09/10 07:31:36;;;;;;;29.87;26.70;;;21.60;88.30;;;24.71;55.38;101780.91;4935847;29;20190;-66
2023/09/10 07:34:04;;;;;;;33.47;28.73;;;21.60;88.50;;;24.80;55.32;101779.47;4929373;29;20208;-66
2023/09/10 07:36:31;;;;;;;29.53;26.30;;;21.60;88.20;;;24.88;55.26;101776.41;4935568;29;20217;-66
2023/09/10 07:38:58;;;;;;;33.83;30.37;;;21.70;88.20;;;24.98;55.57;101781.16;4928218;29;20286;-66
2023/09/10 07:41:25;;;;;;;30.17;26.97;;;21.80;88.30;;;25.11;54.83;101774.59;4916706;29;20229;-66
2023/09/10 07:43:54;;;;;;;31.37;28.17;;;21.80;88.10;;;25.31;54.86;101777.63;4916918;29;20273;-66
2023/09/10 07:46:21;;;;;;;30.87;27.63;;;22.00;88.00;;;25.50;54.67;101779.84;4916722;29;20199;-66
2023/09/10 07:48:48;;;;;;;32.63;29.07;;;22.10;87.70;;;25.73;54.29;101772.59;4930967;29;20306;-66
2023/09/10 07:51:15;;;;;;;29.50;26.30;;;22.30;87.30;;;25.96;53.40;101775.06;4935807;29;20600;-66
2023/09/10 07:53:42;;;;;;;30.97;27.83;;;22.50;86.70;;;26.30;52.59;101776.56;4935616;29;20218;-66
2023/09/10 07:56:09;;;;;;;33.80;30.40;;;22.70;86.50;;;26.71;51.93;101784.03;4933780;29;20304;-66
2023/09/10 07:58:37;;;;;;;28.37;25.47;;;22.90;85.70;;;27.18;51.00;101786.09;4939084;29;20284;-66
2023/09/10 08:01:05;;;;;;;30.87;27.63;;;23.20;85.30;;;27.73;49.83;101786.50;4938902;29;20224;-65
2023/09/10 08:03:34;;;;;;;30.00;26.97;;;23.50;84.60;;;28.21;48.57;101790.78;4939249;29;20323;-66
2023/09/10 08:06:01;;;;;;;31.80;28.50;;;23.80;83.20;;;28.67;47.61;101784.41;4938979;29;20562;-67
2023/09/10 08:08:28;;;;;;;30.87;27.80;;;24.20;82.30;;;29.32;45.97;101791.78;4923236;29;20281;-67
2023/09/10 08:10:55;;;;;;;29.40;26.50;;;24.60;80.50;;;29.81;45.05;101785.75;4920138;29;20344;-66
2023/09/10 08:13:23;;;;;;;31.37;28.33;;;25.00;79.40;;;30.12;43.76;101790.75;4919775;29;20258;-67
2023/09/10 08:15:50;;;;;;;31.30;28.23;;;25.30;77.80;;;30.56;43.42;101790.81;4919976;29;20190;-66
2023/09/10 08:18:19;;;;;;;30.10;26.93;;;25.60;76.90;;;31.01;43.13;101797.03;4923186;29;20226;-66
2023/09/10 08:20:46;;;;;;;24.07;21.77;;;26.00;76.40;;;31.37;42.49;101790.16;4919956;29;20222;-66
2023/09/10 08:23:13;;;;;;;24.47;22.20;;;26.40;75.70;;;31.70;40.85;101799.38;4919608;29;20205;-66
2023/09/10 08:25:40;;;;;;;24.87;22.53;;;26.80;73.60;;;31.86;40.56;101800.81;4928406;29;20198;-66
2023/09/10 08:28:07;;;;;;;27.63;24.97;;;27.20;71.80;;;31.92;40.12;101799.66;4938631;29;20224;-66
2023/09/10 08:30:35;;;;;;;22.10;20.00;;;27.40;70.00;;;32.03;39.85;101804.72;4938225;29;20226;-66
2023/09/10 08:33:02;;;;;;;22.77;20.60;;;27.50;69.80;;;32.38;38.79;101799.94;4938327;29;20204;-66
2023/09/10 08:35:46;;;;;;;25.17;22.97;;;27.60;69.30;;;32.62;38.02;101800.66;4938841;29;20237;-67
2023/09/10 08:38:13;;;;;;;24.80;22.60;;;27.70;67.40;;;32.83;37.85;101796.50;4936699;29;20277;-67
2023/09/10 08:40:54;;;;;;;21.70;19.70;;;27.90;67.60;;;33.17;37.54;101797.06;4919593;29;20632;-67
2023/09/10 08:43:32;;;;;;;22.33;20.43;;;28.10;67.50;;;33.75;36.63;101807.50;4919367;29;20218;-66
2023/09/10 08:45:59;;;;;;;20.03;18.10;;;28.40;66.30;;;34.11;36.73;101794.75;4935816;29;20232;-67
2023/09/10 08:48:29;;;;;;;18.80;17.00;;;28.70;66.00;;;34.34;35.73;101799.16;4924033;29;20215;-65
2023/09/10 08:50:58;;;;;;;23.23;21.13;;;29.00;64.60;;;34.63;34.20;101794.13;4919372;29;20262;-67
2023/09/10 08:53:27;;;;;;;19.63;17.83;;;29.20;62.00;;;34.97;34.60;101800.97;4937446;29;20218;-66
2023/09/10 08:55:56;;;;;;;18.13;16.53;;;29.40;62.20;;;35.50;32.99;101803.69;4937787;29;20257;-66
2023/09/10 08:58:26;;;;;;;16.90;15.50;;;29.70;61.20;;;35.90;33.06;101806.13;4937908;29;20208;-66
2023/09/10 09:00:55;;;;;;;17.83;16.27;;;30.00;60.00;;;36.39;31.57;101807.69;4938065;29;20221;-66
2023/09/10 09:03:23;;;;;;;14.90;13.50;;;30.20;59.60;;;36.84;30.79;101805.44;4937656;29;20202;-66
2023/09/10 09:05:55;;;;;;;16.13;14.82;;;30.50;58.60;;;37.20;30.37;101805.91;4938081;29;20202;-67
2023/09/10 09:08:31;;;;;;;15.90;14.60;;;30.90;57.70;;;37.71;29.95;101806.84;4937408;29;20270;-68
2023/09/10 09:11:03;;;;;;;14.07;12.98;;;31.30;57.10;;;38.19;29.49;101801.72;4938276;29;20207;-65
2023/09/10 09:13:34;;;;;;;12.85;11.85;;;31.60;56.60;;;38.63;28.88;101803.81;4938615;29;20643;-66
2023/09/10 09:16:03;;;;;;;13.63;12.52;;;31.90;55.20;;;38.91;28.54;101804.06;4937865;29;20570;-66
2023/09/10 09:18:30;;;;;;;13.27;12.20;;;32.30;54.40;;;39.25;27.55;101805.66;4929301;29;20197;-67
2023/09/10 09:21:03;;;;;;;11.90;11.00;;;32.50;53.20;;;39.73;26.93;101805.72;4932869;29;20273;-67
2023/09/10 09:23:41;;;;;;;10.80;9.95;;;32.80;53.00;;;40.11;26.64;101804.53;4937279;29;20198;-67
2023/09/10 09:26:09;;;;;;;11.40;10.48;;;33.10;51.60;;;40.35;25.39;101799.78;4925583;29;20206;-67
2023/09/10 09:28:38;;;;;;;10.13;9.32;;;33.30;50.60;;;40.66;25.96;101799.13;4917899;29;20222;-66
2023/09/10 09:31:08;;;;;;;9.88;9.07;;;33.60;50.40;;;41.06;25.55;101796.28;4918755;29;20206;-66
2023/09/10 09:33:36;;;;;;;11.77;10.70;;;33.80;50.20;;;41.36;25.02;101794.72;4918454;29;20205;-67
2023/09/10 09:36:08;;;;;;;10.07;9.27;;;34.00;48.80;;;41.37;24.50;101793.53;4920907;29;20237;-66
2023/09/10 09:38:42;;;;;;;9.50;8.85;;;34.20;47.60;;;41.40;24.22;101789.25;4936638;29;20213;-66
2023/09/10 09:41:10;;;;;;;8.52;7.93;;;34.30;47.10;;;41.63;24.15;101781.91;4937149;29;20302;-66
2023/09/10 09:43:37;;;;;;;8.80;8.10;;;34.50;46.80;;;41.91;23.87;101781.81;4937107;29;20216;-66
2023/09/10 09:46:04;;;;;;;9.20;8.57;;;34.80;46.40;;;42.25;23.05;101787.34;4936787;29;20619;-66
2023/09/10 09:48:34;;;;;;;11.32;10.27;;;34.90;45.40;;;42.41;22.86;101781.75;4937072;29;20218;-66
2023/09/10 09:51:03;;;;;;;9.15;8.52;;;35.10;44.50;;;42.24;23.17;101787.72;4937052;29;20647;-67
2023/09/10 09:53:33;;;;;;;9.23;8.43;;;35.10;44.20;;;42.09;23.08;101783.84;4935428;29;20225;-66
2023/09/10 09:56:03;;;;;;;9.70;9.00;;;35.30;44.10;;;41.80;23.26;101787.09;4936986;29;20654;-65
2023/09/10 09:58:32;;;;;;;7.72;7.20;;;35.20;42.70;;;41.35;23.34;101781.22;4936619;29;20501;-67
2023/09/10 10:01:00;;;;;;;8.23;7.72;;;35.20;43.10;;;40.81;23.88;101776.25;4936742;29;20209;-66
2023/09/10 10:03:32;;;;;;;8.13;7.53;;;35.00;43.20;;;40.15;24.71;101780.63;4936629;29;20190;-67
2023/09/10 10:05:59;;;;;;;8.40;7.78;;;34.80;43.20;;;39.45;25.83;101777.19;4937340;29;20212;-66